sensor_id;sensor_type;location;lat;lon;timestamp;pressure;altitude;pressure_sealevel;temperature;humidity
33414;BME280;60055;41.884;12.534;2024-01-30T00:01:13;102892.97;;;8.31;67.18
33414;BME280;60055;41.884;12.534;2024-01-30T00:03:38;102894.72;;;8.32;67.32
33414;BME280;60055;41.884;12.534;2024-01-30T00:06:04;102896.25;;;8.12;67.58
33414;BME280;60055;41.884;12.534;2024-01-30T00:08:29;102891.97;;;8.21;67.21
33414;BME280;60055;41.884;12.534;2024-01-30T00:10:55;102886.66;;;8.15;67.52
33414;BME280;60055;41.884;12.534;2024-01-30T00:13:20;102889.28;;;8.14;67.23
33414;BME280;60055;41.884;12.534;2024-01-30T00:15:46;102882.19;;;8.08;67.75
33414;BME280;60055;41.884;12.534;2024-01-30T00:18:11;102888.25;;;7.98;67.69
33414;BME280;60055;41.884;12.534;2024-01-30T00:20:37;102889.88;;;7.86;67.70
33414;BME280;60055;41.884;12.534;2024-01-30T00:23:02;102888.19;;;7.92;67.67
33414;BME280;60055;41.884;12.534;2024-01-30T00:25:27;102896.97;;;7.94;68.32
33414;BME280;60055;41.884;12.534;2024-01-30T00:27:53;102896.06;;;7.89;67.29
33414;BME280;60055;41.884;12.534;2024-01-30T00:30:20;102887.28;;;7.89;67.32
33414;BME280;60055;41.884;12.534;2024-01-30T00:32:45;102887.19;;;7.78;67.64
33414;BME280;60055;41.884;12.534;2024-01-30T00:35:11;102887.19;;;7.81;67.45
33414;BME280;60055;41.884;12.534;2024-01-30T00:37:36;102901.00;;;7.59;67.15
33414;BME280;60055;41.884;12.534;2024-01-30T00:40:02;102888.84;;;7.67;67.30
33414;BME280;60055;41.884;12.534;2024-01-30T00:42:27;102891.56;;;7.76;67.50
33414;BME280;60055;41.884;12.534;2024-01-30T00:44:53;102884.59;;;7.84;66.91
33414;BME280;60055;41.884;12.534;2024-01-30T00:47:18;102886.25;;;7.75;66.98
33414;BME280;60055;41.884;12.534;2024-01-30T00:49:44;102898.38;;;7.59;66.97
33414;BME280;60055;41.884;12.534;2024-01-30T00:52:09;102893.75;;;7.38;67.45
33414;BME280;60055;41.884;12.534;2024-01-30T00:54:35;102909.69;;;7.52;67.15
33414;BME280;60055;41.884;12.534;2024-01-30T00:57:00;102905.31;;;7.54;67.30
33414;BME280;60055;41.884;12.534;2024-01-30T00:59:26;102904.41;;;7.50;66.94
33414;BME280;60055;41.884;12.534;2024-01-30T01:01:51;102901.66;;;7.41;67.32
33414;BME280;60055;41.884;12.534;2024-01-30T01:04:17;102890.78;;;7.11;67.90
33414;BME280;60055;41.884;12.534;2024-01-30T01:06:43;102903.34;;;7.33;67.39
33414;BME280;60055;41.884;12.534;2024-01-30T01:09:10;102892.94;;;7.42;67.13
33414;BME280;60055;41.884;12.534;2024-01-30T01:11:36;102903.53;;;7.51;67.04
33414;BME280;60055;41.884;12.534;2024-01-30T01:14:03;102898.25;;;7.48;66.63
33414;BME280;60055;41.884;12.534;2024-01-30T01:16:29;102886.97;;;7.57;66.46
33414;BME280;60055;41.884;12.534;2024-01-30T01:18:54;102891.28;;;7.52;66.61
33414;BME280;60055;41.884;12.534;2024-01-30T01:21:20;102896.53;;;7.52;66.27
33414;BME280;60055;41.884;12.534;2024-01-30T01:23:45;102884.22;;;7.48;66.02
33414;BME280;60055;41.884;12.534;2024-01-30T01:26:11;102883.44;;;7.53;66.15
33414;BME280;60055;41.884;12.534;2024-01-30T01:28:36;102883.44;;;7.55;65.81
33414;BME280;60055;41.884;12.534;2024-01-30T01:31:02;102879.84;;;7.48;65.59
33414;BME280;60055;41.884;12.534;2024-01-30T01:33:33;102889.47;;;7.48;65.80
33414;BME280;60055;41.884;12.534;2024-01-30T01:35:59;102881.31;;;7.22;66.91
33414;BME280;60055;41.884;12.534;2024-01-30T01:38:25;102881.59;;;7.46;67.33
33414;BME280;60055;41.884;12.534;2024-01-30T01:40:50;102880.31;;;7.14;66.99
33414;BME280;60055;41.884;12.534;2024-01-30T01:43:16;102891.91;;;7.30;66.43
33414;BME280;60055;41.884;12.534;2024-01-30T01:45:42;102883.03;;;7.22;66.73
33414;BME280;60055;41.884;12.534;2024-01-30T01:48:08;102886.72;;;7.36;66.55
33414;BME280;60055;41.884;12.534;2024-01-30T01:50:34;102885.69;;;7.22;66.83
33414;BME280;60055;41.884;12.534;2024-01-30T01:53:01;102880.44;;;7.25;66.91
33414;BME280;60055;41.884;12.534;2024-01-30T01:55:29;102891.00;;;7.28;66.84
33414;BME280;60055;41.884;12.534;2024-01-30T01:57:54;102875.25;;;7.31;66.66
33414;BME280;60055;41.884;12.534;2024-01-30T02:00:20;102878.78;;;7.30;66.27
33414;BME280;60055;41.884;12.534;2024-01-30T02:02:46;102873.34;;;7.17;66.09
33414;BME280;60055;41.884;12.534;2024-01-30T02:05:12;102872.25;;;7.00;66.63
33414;BME280;60055;41.884;12.534;2024-01-30T02:07:38;102871.44;;;7.03;66.23
33414;BME280;60055;41.884;12.534;2024-01-30T02:10:04;102867.91;;;7.01;66.49
33414;BME280;60055;41.884;12.534;2024-01-30T02:12:30;102872.44;;;7.14;66.70
33414;BME280;60055;41.884;12.534;2024-01-30T02:14:55;102875.69;;;6.95;66.56
33414;BME280;60055;41.884;12.534;2024-01-30T02:17:21;102872.72;;;6.69;66.93
33414;BME280;60055;41.884;12.534;2024-01-30T02:19:48;102858.78;;;6.76;67.15
33414;BME280;60055;41.884;12.534;2024-01-30T02:22:14;102861.91;;;6.49;67.15
33414;BME280;60055;41.884;12.534;2024-01-30T02:24:39;102866.06;;;6.34;68.27
33414;BME280;60055;41.884;12.534;2024-01-30T02:27:05;102860.34;;;6.59;67.64
33414;BME280;60055;41.884;12.534;2024-01-30T02:29:30;102855.91;;;6.56;67.20
33414;BME280;60055;41.884;12.534;2024-01-30T02:31:56;102847.47;;;6.20;67.47
33414;BME280;60055;41.884;12.534;2024-01-30T02:34:21;102847.56;;;6.25;67.46
33414;BME280;60055;41.884;12.534;2024-01-30T02:36:47;102848.38;;;6.22;68.10
33414;BME280;60055;41.884;12.534;2024-01-30T02:39:12;102847.59;;;6.28;67.51
33414;BME280;60055;41.884;12.534;2024-01-30T02:41:37;102847.81;;;6.43;66.71
33414;BME280;60055;41.884;12.534;2024-01-30T02:44:03;102847.53;;;6.22;66.06
33414;BME280;60055;41.884;12.534;2024-01-30T02:46:29;102851.97;;;6.27;67.29
33414;BME280;60055;41.884;12.534;2024-01-30T02:48:54;102851.66;;;6.07;66.02
33414;BME280;60055;41.884;12.534;2024-01-30T02:51:20;102854.09;;;5.98;66.52
33414;BME280;60055;41.884;12.534;2024-01-30T02:53:45;102851.16;;;5.82;66.33
33414;BME280;60055;41.884;12.534;2024-01-30T02:56:11;102848.81;;;5.94;67.43
33414;BME280;60055;41.884;12.534;2024-01-30T02:58:39;102850.22;;;5.78;67.05
33414;BME280;60055;41.884;12.534;2024-01-30T03:01:05;102849.75;;;5.97;65.70
33414;BME280;60055;41.884;12.534;2024-01-30T03:03:31;102852.47;;;6.03;65.68
33414;BME280;60055;41.884;12.534;2024-01-30T03:05:56;102856.75;;;6.00;65.45
33414;BME280;60055;41.884;12.534;2024-01-30T03:08:22;102856.03;;;6.08;65.16
33414;BME280;60055;41.884;12.534;2024-01-30T03:10:47;102856.69;;;5.95;65.63
33414;BME280;60055;41.884;12.534;2024-01-30T03:13:12;102857.78;;;6.09;65.40
33414;BME280;60055;41.884;12.534;2024-01-30T03:15:38;102863.22;;;6.20;64.71
33414;BME280;60055;41.884;12.534;2024-01-30T03:18:03;102861.56;;;6.27;64.74
33414;BME280;60055;41.884;12.534;2024-01-30T03:20:29;102861.56;;;6.27;63.70
33414;BME280;60055;41.884;12.534;2024-01-30T03:22:55;102855.03;;;6.02;64.10
33414;BME280;60055;41.884;12.534;2024-01-30T03:25:21;102856.81;;;6.03;64.60
33414;BME280;60055;41.884;12.534;2024-01-30T03:27:46;102859.28;;;5.94;64.66
33414;BME280;60055;41.884;12.534;2024-01-30T03:30:11;102860.19;;;5.96;65.70
33414;BME280;60055;41.884;12.534;2024-01-30T03:32:37;102862.38;;;5.73;64.63
33414;BME280;60055;41.884;12.534;2024-01-30T03:35:02;102858.91;;;5.74;64.85
33414;BME280;60055;41.884;12.534;2024-01-30T03:37:28;102851.00;;;5.71;64.91
33414;BME280;60055;41.884;12.534;2024-01-30T03:39:53;102849.22;;;5.70;64.51
33414;BME280;60055;41.884;12.534;2024-01-30T03:42:19;102859.72;;;5.72;64.31
33414;BME280;60055;41.884;12.534;2024-01-30T03:44:44;102864.91;;;5.68;64.32
33414;BME280;60055;41.884;12.534;2024-01-30T03:47:10;102859.59;;;5.64;64.44
33414;BME280;60055;41.884;12.534;2024-01-30T03:49:35;102858.19;;;5.83;64.00
33414;BME280;60055;41.884;12.534;2024-01-30T03:52:01;102863.31;;;5.78;63.87
33414;BME280;60055;41.884;12.534;2024-01-30T03:54:26;102863.38;;;5.80;63.59
33414;BME280;60055;41.884;12.534;2024-01-30T03:56:52;102856.47;;;5.85;63.37
33414;BME280;60055;41.884;12.534;2024-01-30T03:59:17;102856.72;;;5.97;63.73
33414;BME280;60055;41.884;12.534;2024-01-30T04:01:47;102847.88;;;5.92;63.39
33414;BME280;60055;41.884;12.534;2024-01-30T04:04:12;102857.44;;;5.88;63.25
33414;BME280;60055;41.884;12.534;2024-01-30T04:06:38;102854.19;;;6.01;62.90
33414;BME280;60055;41.884;12.534;2024-01-30T04:09:03;102854.00;;;5.91;63.29
33414;BME280;60055;41.884;12.534;2024-01-30T04:11:29;102857.63;;;5.99;62.70
33414;BME280;60055;41.884;12.534;2024-01-30T04:13:54;102858.41;;;5.93;63.05
33414;BME280;60055;41.884;12.534;2024-01-30T04:16:20;102863.75;;;5.98;63.75
33414;BME280;60055;41.884;12.534;2024-01-30T04:18:47;102866.88;;;5.82;62.84
33414;BME280;60055;41.884;12.534;2024-01-30T04:21:12;102866.22;;;5.90;62.29
33414;BME280;60055;41.884;12.534;2024-01-30T04:23:39;102865.19;;;5.84;62.29
33414;BME280;60055;41.884;12.534;2024-01-30T04:26:05;102871.19;;;5.78;62.63
33414;BME280;60055;41.884;12.534;2024-01-30T04:28:30;102877.44;;;5.85;62.82
33414;BME280;60055;41.884;12.534;2024-01-30T04:30:56;102875.97;;;5.99;62.70
33414;BME280;60055;41.884;12.534;2024-01-30T04:33:21;102881.69;;;5.78;62.15
33414;BME280;60055;41.884;12.534;2024-01-30T04:35:46;102870.38;;;5.81;62.41
33414;BME280;60055;41.884;12.534;2024-01-30T04:38:12;102873.84;;;5.80;62.26
33414;BME280;60055;41.884;12.534;2024-01-30T04:40:37;102873.50;;;5.61;63.11
33414;BME280;60055;41.884;12.534;2024-01-30T04:43:03;102882.47;;;5.73;62.31
33414;BME280;60055;41.884;12.534;2024-01-30T04:45:28;102875.34;;;5.64;62.01
33414;BME280;60055;41.884;12.534;2024-01-30T04:47:54;102882.44;;;5.71;61.97
33414;BME280;60055;41.884;12.534;2024-01-30T04:50:19;102879.16;;;5.81;62.08
33414;BME280;60055;41.884;12.534;2024-01-30T04:52:45;102882.31;;;5.65;62.02
33414;BME280;60055;41.884;12.534;2024-01-30T04:55:10;102884.19;;;5.71;61.74
33414;BME280;60055;41.884;12.534;2024-01-30T04:57:35;102883.50;;;5.82;61.54
33414;BME280;60055;41.884;12.534;2024-01-30T05:00:02;102877.28;;;5.76;61.77
33414;BME280;60055;41.884;12.534;2024-01-30T05:02:28;102880.44;;;5.58;61.76
33414;BME280;60055;41.884;12.534;2024-01-30T05:04:54;102888.38;;;5.61;61.63
33414;BME280;60055;41.884;12.534;2024-01-30T05:07:19;102883.09;;;5.59;63.54
33414;BME280;60055;41.884;12.534;2024-01-30T05:09:45;102880.25;;;5.49;62.30
33414;BME280;60055;41.884;12.534;2024-01-30T05:12:10;102875.13;;;5.55;62.14
33414;BME280;60055;41.884;12.534;2024-01-30T05:14:36;102884.78;;;5.56;62.29
33414;BME280;60055;41.884;12.534;2024-01-30T05:17:01;102885.81;;;5.64;61.95
33414;BME280;60055;41.884;12.534;2024-01-30T05:19:28;102884.03;;;5.64;61.81
33414;BME280;60055;41.884;12.534;2024-01-30T05:21:53;102896.47;;;5.75;61.71
33414;BME280;60055;41.884;12.534;2024-01-30T05:24:19;102893.72;;;5.67;62.04
33414;BME280;60055;41.884;12.534;2024-01-30T05:26:44;102886.41;;;5.51;62.31
33414;BME280;60055;41.884;12.534;2024-01-30T05:29:10;102895.41;;;5.65;63.42
33414;BME280;60055;41.884;12.534;2024-01-30T05:31:35;102883.72;;;5.46;61.90
33414;BME280;60055;41.884;12.534;2024-01-30T05:34:01;102889.66;;;5.38;62.31
33414;BME280;60055;41.884;12.534;2024-01-30T05:36:26;102891.47;;;5.42;62.28
33414;BME280;60055;41.884;12.534;2024-01-30T05:38:52;102876.50;;;5.35;62.20
33414;BME280;60055;41.884;12.534;2024-01-30T05:41:18;102890.72;;;5.05;63.04
33414;BME280;60055;41.884;12.534;2024-01-30T05:43:43;102894.13;;;5.01;63.46
33414;BME280;60055;41.884;12.534;2024-01-30T05:46:09;102893.09;;;4.93;63.34
33414;BME280;60055;41.884;12.534;2024-01-30T05:48:34;102888.97;;;5.04;63.34
33414;BME280;60055;41.884;12.534;2024-01-30T05:51:01;102888.94;;;5.03;63.37
33414;BME280;60055;41.884;12.534;2024-01-30T05:53:27;102897.09;;;5.18;63.01
33414;BME280;60055;41.884;12.534;2024-01-30T05:55:52;102887.63;;;5.25;63.17
33414;BME280;60055;41.884;12.534;2024-01-30T05:58:17;102893.69;;;5.22;62.78
33414;BME280;60055;41.884;12.534;2024-01-30T06:00:43;102889.25;;;5.18;63.41
33414;BME280;60055;41.884;12.534;2024-01-30T06:03:08;102891.19;;;5.27;62.88
33414;BME280;60055;41.884;12.534;2024-01-30T06:05:34;102892.06;;;5.27;63.13
33414;BME280;60055;41.884;12.534;2024-01-30T06:07:59;102894.31;;;5.10;64.03
33414;BME280;60055;41.884;12.534;2024-01-30T06:10:25;102890.56;;;4.96;64.13
33414;BME280;60055;41.884;12.534;2024-01-30T06:12:50;102897.63;;;5.02;64.19
33414;BME280;60055;41.884;12.534;2024-01-30T06:15:16;102900.72;;;5.23;63.88
33414;BME280;60055;41.884;12.534;2024-01-30T06:17:41;102909.13;;;5.08;63.75
33414;BME280;60055;41.884;12.534;2024-01-30T06:20:07;102905.72;;;5.12;63.28
33414;BME280;60055;41.884;12.534;2024-01-30T06:22:32;102904.06;;;5.18;62.89
33414;BME280;60055;41.884;12.534;2024-01-30T06:24:58;102905.56;;;5.05;62.78
33414;BME280;60055;41.884;12.534;2024-01-30T06:27:23;102904.72;;;5.06;62.60
33414;BME280;60055;41.884;12.534;2024-01-30T06:29:49;102910.72;;;5.02;63.21
33414;BME280;60055;41.884;12.534;2024-01-30T06:32:14;102911.38;;;4.92;63.02
33414;BME280;60055;41.884;12.534;2024-01-30T06:34:41;102904.72;;;5.06;62.71
33414;BME280;60055;41.884;12.534;2024-01-30T06:37:06;102910.03;;;5.10;61.97
33414;BME280;60055;41.884;12.534;2024-01-30T06:39:32;102904.53;;;4.98;62.15
33414;BME280;60055;41.884;12.534;2024-01-30T06:41:57;102909.97;;;5.07;61.99
33414;BME280;60055;41.884;12.534;2024-01-30T06:44:22;102914.56;;;5.18;62.42
33414;BME280;60055;41.884;12.534;2024-01-30T06:46:48;102918.94;;;5.17;61.63
33414;BME280;60055;41.884;12.534;2024-01-30T06:49:13;102912.09;;;5.25;61.48
33414;BME280;60055;41.884;12.534;2024-01-30T06:51:39;102926.13;;;5.27;61.13
33414;BME280;60055;41.884;12.534;2024-01-30T06:54:04;102929.28;;;5.12;61.22
33414;BME280;60055;41.884;12.534;2024-01-30T06:56:30;102933.81;;;5.20;60.98
33414;BME280;60055;41.884;12.534;2024-01-30T06:58:55;102934.72;;;5.20;60.94
33414;BME280;60055;41.884;12.534;2024-01-30T07:01:30;102935.66;;;5.24;60.66
33414;BME280;60055;41.884;12.534;2024-01-30T07:03:56;102931.44;;;5.30;60.86
33414;BME280;60055;41.884;12.534;2024-01-30T07:06:22;102928.75;;;5.29;60.25
33414;BME280;60055;41.884;12.534;2024-01-30T07:08:49;102934.00;;;5.29;60.64
33414;BME280;60055;41.884;12.534;2024-01-30T07:11:21;102944.59;;;5.33;60.52
33414;BME280;60055;41.884;12.534;2024-01-30T07:13:47;102936.91;;;5.42;60.12
33414;BME280;60055;41.884;12.534;2024-01-30T07:16:14;102944.47;;;5.29;60.63
33414;BME280;60055;41.884;12.534;2024-01-30T07:18:40;102946.59;;;5.48;60.49
33414;BME280;60055;41.884;12.534;2024-01-30T07:21:05;102950.50;;;5.66;59.75
33414;BME280;60055;41.884;12.534;2024-01-30T07:23:30;102949.72;;;5.72;58.86
33414;BME280;60055;41.884;12.534;2024-01-30T07:25:56;102945.78;;;5.49;59.36
33414;BME280;60055;41.884;12.534;2024-01-30T07:28:21;102946.81;;;5.57;59.36
33414;BME280;60055;41.884;12.534;2024-01-30T07:30:47;102950.72;;;5.34;59.50
33414;BME280;60055;41.884;12.534;2024-01-30T07:33:13;102952.91;;;5.56;58.51
33414;BME280;60055;41.884;12.534;2024-01-30T07:35:39;102947.59;;;5.53;58.54
33414;BME280;60055;41.884;12.534;2024-01-30T07:38:04;102961.44;;;5.89;59.11
33414;BME280;60055;41.884;12.534;2024-01-30T07:40:30;102950.06;;;5.89;58.01
33414;BME280;60055;41.884;12.534;2024-01-30T07:42:55;102956.47;;;6.01;57.73
33414;BME280;60055;41.884;12.534;2024-01-30T07:45:21;102952.19;;;6.08;57.46
33414;BME280;60055;41.884;12.534;2024-01-30T07:47:51;102966.78;;;5.94;57.61
33414;BME280;60055;41.884;12.534;2024-01-30T07:50:17;102968.84;;;6.10;57.66
33414;BME280;60055;41.884;12.534;2024-01-30T07:52:43;102958.94;;;5.94;57.83
33414;BME280;60055;41.884;12.534;2024-01-30T07:55:08;102963.00;;;6.26;57.63
33414;BME280;60055;41.884;12.534;2024-01-30T07:57:34;102962.47;;;6.47;56.80
33414;BME280;60055;41.884;12.534;2024-01-30T08:00:00;102955.09;;;6.76;56.16
33414;BME280;60055;41.884;12.534;2024-01-30T08:02:26;102962.56;;;7.08;54.42
33414;BME280;60055;41.884;12.534;2024-01-30T08:04:51;102967.25;;;7.31;54.06
33414;BME280;60055;41.884;12.534;2024-01-30T08:07:16;102958.25;;;7.13;53.91
33414;BME280;60055;41.884;12.534;2024-01-30T08:09:43;102966.66;;;7.53;53.67
33414;BME280;60055;41.884;12.534;2024-01-30T08:12:09;102965.88;;;6.95;54.26
33414;BME280;60055;41.884;12.534;2024-01-30T08:14:34;102966.38;;;7.32;54.06
33414;BME280;60055;41.884;12.534;2024-01-30T08:16:59;102968.09;;;7.28;53.50
33414;BME280;60055;41.884;12.534;2024-01-30T08:19:25;102969.28;;;7.53;54.07
33414;BME280;60055;41.884;12.534;2024-01-30T08:21:50;102969.50;;;7.69;52.75
33414;BME280;60055;41.884;12.534;2024-01-30T08:24:16;102970.97;;;7.46;53.43
33414;BME280;60055;41.884;12.534;2024-01-30T08:26:41;102972.78;;;7.52;52.98
33414;BME280;60055;41.884;12.534;2024-01-30T08:29:07;102975.78;;;7.82;52.42
33414;BME280;60055;41.884;12.534;2024-01-30T08:31:32;102974.25;;;8.04;52.44
33414;BME280;60055;41.884;12.534;2024-01-30T08:33:57;102983.16;;;8.16;52.64
33414;BME280;60055;41.884;12.534;2024-01-30T08:36:23;102982.28;;;8.16;52.00
33414;BME280;60055;41.884;12.534;2024-01-30T08:38:49;102984.13;;;8.25;52.11
33414;BME280;60055;41.884;12.534;2024-01-30T08:41:14;102979.72;;;8.23;52.12
33414;BME280;60055;41.884;12.534;2024-01-30T08:43:40;102989.53;;;8.37;51.08
33414;BME280;60055;41.884;12.534;2024-01-30T08:46:05;102979.22;;;8.64;50.92
33414;BME280;60055;41.884;12.534;2024-01-30T08:48:30;102977.66;;;8.89;50.09
33414;BME280;60055;41.884;12.534;2024-01-30T08:50:56;102978.63;;;9.04;49.36
33414;BME280;60055;41.884;12.534;2024-01-30T08:53:21;102972.56;;;9.14;49.16
33414;BME280;60055;41.884;12.534;2024-01-30T08:55:47;102971.75;;;9.28;48.49
33414;BME280;60055;41.884;12.534;2024-01-30T08:58:12;102976.13;;;9.27;48.75
33414;BME280;60055;41.884;12.534;2024-01-30T09:00:38;102966.28;;;8.94;49.72
33414;BME280;60055;41.884;12.534;2024-01-30T09:03:03;102973.34;;;9.01;48.79
33414;BME280;60055;41.884;12.534;2024-01-30T09:05:29;102972.59;;;9.23;49.26
33414;BME280;60055;41.884;12.534;2024-01-30T09:07:54;102978.03;;;9.57;48.64
33414;BME280;60055;41.884;12.534;2024-01-30T09:10:20;102977.16;;;9.58;48.21
33414;BME280;60055;41.884;12.534;2024-01-30T09:12:46;102975.19;;;9.17;49.54
33414;BME280;60055;41.884;12.534;2024-01-30T09:15:11;102979.75;;;9.53;48.44
33414;BME280;60055;41.884;12.534;2024-01-30T09:17:37;102974.47;;;9.44;48.76
33414;BME280;60055;41.884;12.534;2024-01-30T09:20:02;102979.03;;;9.86;48.35
33414;BME280;60055;41.884;12.534;2024-01-30T09:22:28;102979.06;;;10.06;48.45
33414;BME280;60055;41.884;12.534;2024-01-30T09:24:53;102986.09;;;10.08;47.22
33414;BME280;60055;41.884;12.534;2024-01-30T09:27:19;102985.13;;;9.71;48.48
33414;BME280;60055;41.884;12.534;2024-01-30T09:29:45;102989.59;;;9.86;48.52
33414;BME280;60055;41.884;12.534;2024-01-30T09:32:10;102992.25;;;10.04;49.03
33414;BME280;60055;41.884;12.534;2024-01-30T09:34:36;103001.13;;;10.26;48.62
33414;BME280;60055;41.884;12.534;2024-01-30T09:37:01;102987.09;;;10.54;47.69
33414;BME280;60055;41.884;12.534;2024-01-30T09:39:27;102993.25;;;10.64;47.76
33414;BME280;60055;41.884;12.534;2024-01-30T09:42:04;102987.97;;;10.61;47.23
33414;BME280;60055;41.884;12.534;2024-01-30T09:44:30;102990.59;;;10.32;47.97
33414;BME280;60055;41.884;12.534;2024-01-30T09:46:56;102999.41;;;10.49;48.10
33414;BME280;60055;41.884;12.534;2024-01-30T09:49:24;102992.34;;;10.56;48.34
33414;BME280;60055;41.884;12.534;2024-01-30T09:51:50;102997.63;;;10.75;47.86
33414;BME280;60055;41.884;12.534;2024-01-30T09:54:15;102996.72;;;10.92;47.38
33414;BME280;60055;41.884;12.534;2024-01-30T09:56:41;102994.09;;;10.33;47.60
33414;BME280;60055;41.884;12.534;2024-01-30T09:59:07;102991.50;;;10.51;48.37
33414;BME280;60055;41.884;12.534;2024-01-30T10:01:34;103004.66;;;10.25;48.50
33414;BME280;60055;41.884;12.534;2024-01-30T10:03:59;102992.22;;;9.86;49.80
33414;BME280;60055;41.884;12.534;2024-01-30T10:06:26;102991.38;;;9.99;49.89
33414;BME280;60055;41.884;12.534;2024-01-30T10:08:53;102994.97;;;10.19;49.30
33414;BME280;60055;41.884;12.534;2024-01-30T10:11:18;102992.22;;;9.95;49.81
33414;BME280;60055;41.884;12.534;2024-01-30T10:13:43;102987.94;;;10.17;49.70
33414;BME280;60055;41.884;12.534;2024-01-30T10:16:09;102986.19;;;10.27;49.59
33414;BME280;60055;41.884;12.534;2024-01-30T10:18:34;102988.81;;;10.45;48.95
33414;BME280;60055;41.884;12.534;2024-01-30T10:21:00;102985.31;;;10.46;49.70
33414;BME280;60055;41.884;12.534;2024-01-30T10:23:26;102987.94;;;10.38;49.17
33414;BME280;60055;41.884;12.534;2024-01-30T10:25:52;102976.50;;;10.35;49.65
33414;BME280;60055;41.884;12.534;2024-01-30T10:28:17;102977.38;;;10.37;50.21
33414;BME280;60055;41.884;12.534;2024-01-30T10:30:43;102972.09;;;10.46;50.43
33414;BME280;60055;41.884;12.534;2024-01-30T10:33:09;102966.81;;;10.52;50.07
33414;BME280;60055;41.884;12.534;2024-01-30T10:35:34;102972.09;;;10.73;50.03
33414;BME280;60055;41.884;12.534;2024-01-30T10:38:00;102982.66;;;10.73;51.37
33414;BME280;60055;41.884;12.534;2024-01-30T10:40:29;102972.09;;;10.68;51.26
33414;BME280;60055;41.884;12.534;2024-01-30T10:42:55;102974.72;;;10.93;51.40
33414;BME280;60055;41.884;12.534;2024-01-30T10:45:22;102975.53;;;11.20;50.62
33414;BME280;60055;41.884;12.534;2024-01-30T10:47:53;102972.03;;;11.09;51.01
33414;BME280;60055;41.884;12.534;2024-01-30T10:50:19;102963.28;;;10.91;51.52
33414;BME280;60055;41.884;12.534;2024-01-30T10:52:46;102962.28;;;11.29;51.03
33414;BME280;60055;41.884;12.534;2024-01-30T10:55:13;102956.97;;;11.42;50.78
33414;BME280;60055;41.884;12.534;2024-01-30T10:57:40;102953.41;;;11.46;50.62
33414;BME280;60055;41.884;12.534;2024-01-30T11:00:10;102953.38;;;11.50;50.81
33414;BME280;60055;41.884;12.534;2024-01-30T11:02:40;102948.97;;;11.55;51.47
33414;BME280;60055;41.884;12.534;2024-01-30T11:05:06;102945.38;;;11.73;51.11
33414;BME280;60055;41.884;12.534;2024-01-30T11:07:33;102947.13;;;11.75;50.35
33414;BME280;60055;41.884;12.534;2024-01-30T11:10:01;102939.13;;;11.86;50.31
33414;BME280;60055;41.884;12.534;2024-01-30T11:12:27;102930.28;;;11.92;50.72
33414;BME280;60055;41.884;12.534;2024-01-30T11:22:41;102922.19;;;12.07;52.86
33414;BME280;60055;41.884;12.534;2024-01-30T11:25:11;102920.34;;;12.22;52.54
33414;BME280;60055;41.884;12.534;2024-01-30T11:27:37;102912.31;;;12.32;52.35
33414;BME280;60055;41.884;12.534;2024-01-30T11:30:03;102911.38;;;12.40;52.45
33414;BME280;60055;41.884;12.534;2024-01-30T11:32:28;102904.38;;;12.28;52.64
33414;BME280;60055;41.884;12.534;2024-01-30T11:34:55;102905.25;;;12.30;52.48
33414;BME280;60055;41.884;12.534;2024-01-30T11:37:21;102900.81;;;12.36;52.97
33414;BME280;60055;41.884;12.534;2024-01-30T11:39:51;102899.94;;;12.32;53.64
33414;BME280;60055;41.884;12.534;2024-01-30T11:42:16;102898.09;;;12.42;53.76
33414;BME280;60055;41.884;12.534;2024-01-30T11:44:49;102881.25;;;12.49;53.26
33414;BME280;60055;41.884;12.534;2024-01-30T11:47:15;102884.72;;;12.57;53.70
33414;BME280;60055;41.884;12.534;2024-01-30T11:49:41;102893.50;;;12.59;54.03
33414;BME280;60055;41.884;12.534;2024-01-30T11:52:07;102883.63;;;12.76;54.56
33414;BME280;60055;41.884;12.534;2024-01-30T11:54:32;102888.81;;;12.85;55.74
33414;BME280;60055;41.884;12.534;2024-01-30T11:56:58;102873.81;;;12.84;55.79
33414;BME280;60055;41.884;12.534;2024-01-30T11:59:24;102878.13;;;12.93;55.63
33414;BME280;60055;41.884;12.534;2024-01-30T12:01:51;102875.75;;;12.68;56.63
33414;BME280;60055;41.884;12.534;2024-01-30T12:04:17;102872.25;;;12.65;57.37
33414;BME280;60055;41.884;12.534;2024-01-30T12:06:42;102872.13;;;12.77;56.66
33414;BME280;60055;41.884;12.534;2024-01-30T12:09:09;102869.19;;;13.01;55.44
33414;BME280;60055;41.884;12.534;2024-01-30T12:11:48;102868.19;;;13.14;54.61
33414;BME280;60055;41.884;12.534;2024-01-30T12:14:16;102868.91;;;13.25;53.99
33414;BME280;60055;41.884;12.534;2024-01-30T12:16:42;102864.44;;;13.29;52.73
33414;BME280;60055;41.884;12.534;2024-01-30T12:19:07;102859.97;;;13.34;52.05
33414;BME280;60055;41.884;12.534;2024-01-30T12:21:34;102862.53;;;13.42;51.32
33414;BME280;60055;41.884;12.534;2024-01-30T12:24:00;102852.91;;;13.33;51.44
33414;BME280;60055;41.884;12.534;2024-01-30T12:26:26;102853.50;;;13.53;51.30
33414;BME280;60055;41.884;12.534;2024-01-30T12:28:54;102845.38;;;13.62;51.65
33414;BME280;60055;41.884;12.534;2024-01-30T12:31:32;102846.94;;;13.75;51.89
33414;BME280;60055;41.884;12.534;2024-01-30T12:33:59;102840.41;;;13.98;50.87
33414;BME280;60055;41.884;12.534;2024-01-30T12:36:25;102830.84;;;13.86;50.96
33414;BME280;60055;41.884;12.534;2024-01-30T12:38:50;102831.56;;;13.99;50.75
33414;BME280;60055;41.884;12.534;2024-01-30T12:41:16;102827.25;;;13.90;51.02
33414;BME280;60055;41.884;12.534;2024-01-30T12:43:45;102825.25;;;14.06;50.45
33414;BME280;60055;41.884;12.534;2024-01-30T12:46:11;102813.56;;;14.14;50.30
33414;BME280;60055;41.884;12.534;2024-01-30T12:48:37;102818.00;;;14.14;50.06